sensor_id;sensor_type;location;lat;lon;timestamp;pressure;altitude;pressure_sealevel;temperature
20733;BMP180;10527;52.124;5.196;2022-09-09T00:07:47;100616.00;;;27.60
20733;BMP180;10527;52.124;5.196;2022-09-09T00:10:38;100612.00;;;27.60
20733;BMP180;10527;52.124;5.196;2022-09-09T00:13:34;100616.00;;;27.60
20733;BMP180;10527;52.124;5.196;2022-09-09T00:16:19;100616.00;;;27.60
20733;BMP180;10527;52.124;5.196;2022-09-09T00:18:51;100613.00;;;27.50
20733;BMP180;10527;52.124;5.196;2022-09-09T00:21:30;100610.00;;;27.50
20733;BMP180;10527;52.124;5.196;2022-09-09T00:24:04;100606.00;;;27.40
20733;BMP180;10527;52.124;5.196;2022-09-09T00:27:20;100609.00;;;27.40
20733;BMP180;10527;52.124;5.196;2022-09-09T00:29:58;100604.00;;;27.40
20733;BMP180;10527;52.124;5.196;2022-09-09T00:32:30;100608.00;;;27.40
20733;BMP180;10527;52.124;5.196;2022-09-09T00:35:22;100604.00;;;27.40
20733;BMP180;10527;52.124;5.196;2022-09-09T00:37:56;100600.00;;;27.30
20733;BMP180;10527;52.124;5.196;2022-09-09T00:40:41;100601.00;;;27.30
20733;BMP180;10527;52.124;5.196;2022-09-09T00:43:32;100597.00;;;27.30
20733;BMP180;10527;52.124;5.196;2022-09-09T00:46:56;100606.00;;;27.20
20733;BMP180;10527;52.124;5.196;2022-09-09T00:51:15;100608.00;;;27.20
20733;BMP180;10527;52.124;5.196;2022-09-09T00:56:36;100608.00;;;27.10
20733;BMP180;10527;52.124;5.196;2022-09-09T00:59:34;100612.00;;;27.10
20733;BMP180;10527;52.124;5.196;2022-09-09T01:11:26;100593.00;;;26.80
20733;BMP180;10527;52.124;5.196;2022-09-09T01:14:13;100601.00;;;26.80
20733;BMP180;10527;52.124;5.196;2022-09-09T01:16:45;100596.00;;;26.80
20733;BMP180;10527;52.124;5.196;2022-09-09T01:19:25;100596.00;;;26.80
20733;BMP180;10527;52.124;5.196;2022-09-09T01:22:26;100586.00;;;26.80
20733;BMP180;10527;52.124;5.196;2022-09-09T01:25:28;100600.00;;;26.70
20733;BMP180;10527;52.124;5.196;2022-09-09T01:28:00;100604.00;;;26.70
20733;BMP180;10527;52.124;5.196;2022-09-09T01:30:29;100593.00;;;26.70
20733;BMP180;10527;52.124;5.196;2022-09-09T01:32:58;100593.00;;;26.70
20733;BMP180;10527;52.124;5.196;2022-09-09T01:35:52;100596.00;;;26.80
20733;BMP180;10527;52.124;5.196;2022-09-09T01:38:25;100596.00;;;26.80
20733;BMP180;10527;52.124;5.196;2022-09-09T01:40:52;100594.00;;;26.70
20733;BMP180;10527;52.124;5.196;2022-09-09T01:43:24;100590.00;;;26.70
20733;BMP180;10527;52.124;5.196;2022-09-09T01:45:56;100583.00;;;26.70
20733;BMP180;10527;52.124;5.196;2022-09-09T01:48:24;100586.00;;;26.60
20733;BMP180;10527;52.124;5.196;2022-09-09T01:50:52;100588.00;;;26.60
20733;BMP180;10527;52.124;5.196;2022-09-09T01:53:22;100573.00;;;26.60
20733;BMP180;10527;52.124;5.196;2022-09-09T01:56:07;100575.00;;;26.70
20733;BMP180;10527;52.124;5.196;2022-09-09T02:01:46;100574.00;;;26.70
20733;BMP180;10527;52.124;5.196;2022-09-09T02:05:16;100578.00;;;26.60
20733;BMP180;10527;52.124;5.196;2022-09-09T02:07:50;100567.00;;;26.60
20733;BMP180;10527;52.124;5.196;2022-09-09T02:10:47;100561.00;;;26.60
20733;BMP180;10527;52.124;5.196;2022-09-09T02:13:20;100565.00;;;26.60
20733;BMP180;10527;52.124;5.196;2022-09-09T02:16:34;100559.00;;;26.70
20733;BMP180;10527;52.124;5.196;2022-09-09T02:19:16;100556.00;;;26.60
20733;BMP180;10527;52.124;5.196;2022-09-09T02:21:46;100557.00;;;26.60
20733;BMP180;10527;52.124;5.196;2022-09-09T02:24:16;100556.00;;;26.60
20733;BMP180;10527;52.124;5.196;2022-09-09T02:26:54;100564.00;;;26.60
20733;BMP180;10527;52.124;5.196;2022-09-09T02:29:36;100559.00;;;26.60
20733;BMP180;10527;52.124;5.196;2022-09-09T02:32:12;100562.00;;;26.60
20733;BMP180;10527;52.124;5.196;2022-09-09T02:34:47;100558.00;;;26.60
20733;BMP180;10527;52.124;5.196;2022-09-09T02:37:20;100562.00;;;26.60
20733;BMP180;10527;52.124;5.196;2022-09-09T02:39:49;100559.00;;;26.60
20733;BMP180;10527;52.124;5.196;2022-09-09T02:42:16;100560.00;;;26.50
20733;BMP180;10527;52.124;5.196;2022-09-09T02:44:44;100557.00;;;26.50
20733;BMP180;10527;52.124;5.196;2022-09-09T02:47:35;100553.00;;;26.50
20733;BMP180;10527;52.124;5.196;2022-09-09T02:50:34;100556.00;;;26.50
20733;BMP180;10527;52.124;5.196;2022-09-09T02:53:23;100553.00;;;26.40
20733;BMP180;10527;52.124;5.196;2022-09-09T02:56:05;100548.00;;;26.40
20733;BMP180;10527;52.124;5.196;2022-09-09T02:58:33;100547.00;;;26.40
20733;BMP180;10527;52.124;5.196;2022-09-09T03:01:00;100550.00;;;26.40
20733;BMP180;10527;52.124;5.196;2022-09-09T03:03:29;100543.00;;;26.40
20733;BMP180;10527;52.124;5.196;2022-09-09T03:05:56;100541.00;;;26.40
20733;BMP180;10527;52.124;5.196;2022-09-09T03:08:23;100540.00;;;26.40
20733;BMP180;10527;52.124;5.196;2022-09-09T03:10:51;100544.00;;;26.40
20733;BMP180;10527;52.124;5.196;2022-09-09T03:13:20;100539.00;;;26.40
20733;BMP180;10527;52.124;5.196;2022-09-09T03:15:48;100541.00;;;26.40
20733;BMP180;10527;52.124;5.196;2022-09-09T03:18:15;100535.00;;;26.40
20733;BMP180;10527;52.124;5.196;2022-09-09T03:20:43;100541.00;;;26.40
20733;BMP180;10527;52.124;5.196;2022-09-09T03:23:13;100531.00;;;26.40
20733;BMP180;10527;52.124;5.196;2022-09-09T03:25:49;100534.00;;;26.30
20733;BMP180;10527;52.124;5.196;2022-09-09T03:28:18;100535.00;;;26.30
20733;BMP180;10527;52.124;5.196;2022-09-09T03:30:46;100542.00;;;26.30
20733;BMP180;10527;52.124;5.196;2022-09-09T03:33:13;100542.00;;;26.20
20733;BMP180;10527;52.124;5.196;2022-09-09T03:35:46;100542.00;;;26.20
20733;BMP180;10527;52.124;5.196;2022-09-09T03:38:17;100532.00;;;26.20
20733;BMP180;10527;52.124;5.196;2022-09-09T03:40:54;100539.00;;;26.20
20733;BMP180;10527;52.124;5.196;2022-09-09T03:43:23;100537.00;;;26.20
20733;BMP180;10527;52.124;5.196;2022-09-09T03:45:50;100537.00;;;26.10
20733;BMP180;10527;52.124;5.196;2022-09-09T03:48:19;100532.00;;;26.10
20733;BMP180;10527;52.124;5.196;2022-09-09T03:50:49;100533.00;;;26.10
20733;BMP180;10527;52.124;5.196;2022-09-09T03:53:19;100531.00;;;26.00
20733;BMP180;10527;52.124;5.196;2022-09-09T03:55:52;100540.00;;;26.00
20733;BMP180;10527;52.124;5.196;2022-09-09T03:58:23;100544.00;;;26.00
20733;BMP180;10527;52.124;5.196;2022-09-09T04:00:59;100544.00;;;26.00
20733;BMP180;10527;52.124;5.196;2022-09-09T04:03:28;100527.00;;;26.00
20733;BMP180;10527;52.124;5.196;2022-09-09T04:05:57;100525.00;;;26.00
20733;BMP180;10527;52.124;5.196;2022-09-09T04:08:25;100528.00;;;25.90
20733;BMP180;10527;52.124;5.196;2022-09-09T04:10:54;100530.00;;;25.90
20733;BMP180;10527;52.124;5.196;2022-09-09T04:13:25;100523.00;;;25.90
20733;BMP180;10527;52.124;5.196;2022-09-09T04:15:55;100521.00;;;25.90
20733;BMP180;10527;52.124;5.196;2022-09-09T04:18:24;100521.00;;;25.80
20733;BMP180;10527;52.124;5.196;2022-09-09T04:20:53;100521.00;;;25.80
20733;BMP180;10527;52.124;5.196;2022-09-09T04:23:20;100519.00;;;25.80
20733;BMP180;10527;52.124;5.196;2022-09-09T04:25:52;100514.00;;;25.70
20733;BMP180;10527;52.124;5.196;2022-09-09T04:28:22;100512.00;;;25.80
20733;BMP180;10527;52.124;5.196;2022-09-09T04:30:49;100514.00;;;25.70
20733;BMP180;10527;52.124;5.196;2022-09-09T04:33:16;100520.00;;;25.70
20733;BMP180;10527;52.124;5.196;2022-09-09T04:35:47;100508.00;;;25.70
20733;BMP180;10527;52.124;5.196;2022-09-09T04:38:16;100507.00;;;25.70
20733;BMP180;10527;52.124;5.196;2022-09-09T04:40:47;100503.00;;;25.70
20733;BMP180;10527;52.124;5.196;2022-09-09T04:43:14;100500.00;;;25.70
20733;BMP180;10527;52.124;5.196;2022-09-09T04:45:42;100500.00;;;25.70
20733;BMP180;10527;52.124;5.196;2022-09-09T04:48:10;100493.00;;;25.70
20733;BMP180;10527;52.124;5.196;2022-09-09T04:50:37;100495.00;;;25.70
20733;BMP180;10527;52.124;5.196;2022-09-09T04:53:08;100501.00;;;25.70
20733;BMP180;10527;52.124;5.196;2022-09-09T04:55:34;100504.00;;;25.70
20733;BMP180;10527;52.124;5.196;2022-09-09T04:58:07;100507.00;;;25.70
20733;BMP180;10527;52.124;5.196;2022-09-09T05:00:37;100505.00;;;25.70
20733;BMP180;10527;52.124;5.196;2022-09-09T05:03:05;100503.00;;;25.70
20733;BMP180;10527;52.124;5.196;2022-09-09T05:05:33;100505.00;;;25.70
20733;BMP180;10527;52.124;5.196;2022-09-09T05:08:05;100505.00;;;25.70
20733;BMP180;10527;52.124;5.196;2022-09-09T05:10:33;100496.00;;;25.70
20733;BMP180;10527;52.124;5.196;2022-09-09T05:13:00;100495.00;;;25.70
20733;BMP180;10527;52.124;5.196;2022-09-09T05:15:30;100490.00;;;25.70
20733;BMP180;10527;52.124;5.196;2022-09-09T05:18:10;100486.00;;;25.70
20733;BMP180;10527;52.124;5.196;2022-09-09T05:20:38;100486.00;;;25.60
20733;BMP180;10527;52.124;5.196;2022-09-09T05:23:05;100488.00;;;25.60
20733;BMP180;10527;52.124;5.196;2022-09-09T05:25:32;100487.00;;;25.60
20733;BMP180;10527;52.124;5.196;2022-09-09T05:27:58;100493.00;;;25.60
20733;BMP180;10527;52.124;5.196;2022-09-09T05:30:26;100498.00;;;25.60
20733;BMP180;10527;52.124;5.196;2022-09-09T05:32:56;100495.00;;;25.60
20733;BMP180;10527;52.124;5.196;2022-09-09T05:35:23;100496.00;;;25.60
20733;BMP180;10527;52.124;5.196;2022-09-09T05:37:50;100490.00;;;25.60
20733;BMP180;10527;52.124;5.196;2022-09-09T05:40:16;100479.00;;;25.60
20733;BMP180;10527;52.124;5.196;2022-09-09T05:42:43;100478.00;;;25.60
20733;BMP180;10527;52.124;5.196;2022-09-09T05:45:19;100476.00;;;25.70
20733;BMP180;10527;52.124;5.196;2022-09-09T05:47:52;100484.00;;;25.70
20733;BMP180;10527;52.124;5.196;2022-09-09T05:50:21;100490.00;;;25.70
20733;BMP180;10527;52.124;5.196;2022-09-09T05:52:48;100497.00;;;25.70
20733;BMP180;10527;52.124;5.196;2022-09-09T05:55:16;100504.00;;;25.70
20733;BMP180;10527;52.124;5.196;2022-09-09T05:57:48;100499.00;;;25.70
20733;BMP180;10527;52.124;5.196;2022-09-09T06:00:15;100502.00;;;25.70
20733;BMP180;10527;52.124;5.196;2022-09-09T06:02:42;100502.00;;;25.60
20733;BMP180;10527;52.124;5.196;2022-09-09T06:05:10;100504.00;;;25.60
20733;BMP180;10527;52.124;5.196;2022-09-09T06:07:37;100500.00;;;25.60
20733;BMP180;10527;52.124;5.196;2022-09-09T06:10:04;100502.00;;;25.60
20733;BMP180;10527;52.124;5.196;2022-09-09T06:12:41;100504.00;;;25.60
20733;BMP180;10527;52.124;5.196;2022-09-09T06:15:09;100499.00;;;25.60
20733;BMP180;10527;52.124;5.196;2022-09-09T06:17:36;100495.00;;;25.60
20733;BMP180;10527;52.124;5.196;2022-09-09T06:20:03;100505.00;;;25.60
20733;BMP180;10527;52.124;5.196;2022-09-09T06:22:30;100498.00;;;25.60
20733;BMP180;10527;52.124;5.196;2022-09-09T06:24:57;100498.00;;;25.70
20733;BMP180;10527;52.124;5.196;2022-09-09T06:27:23;100498.00;;;25.70
20733;BMP180;10527;52.124;5.196;2022-09-09T06:29:50;100496.00;;;25.70
20733;BMP180;10527;52.124;5.196;2022-09-09T06:32:17;100495.00;;;25.70
20733;BMP180;10527;52.124;5.196;2022-09-09T06:34:44;100493.00;;;25.80
20733;BMP180;10527;52.124;5.196;2022-09-09T06:37:13;100493.00;;;25.80
20733;BMP180;10527;52.124;5.196;2022-09-09T06:39:40;100486.00;;;25.90
20733;BMP180;10527;52.124;5.196;2022-09-09T06:42:07;100486.00;;;25.90
20733;BMP180;10527;52.124;5.196;2022-09-09T06:44:35;100485.00;;;25.90
20733;BMP180;10527;52.124;5.196;2022-09-09T06:47:02;100476.00;;;25.90
20733;BMP180;10527;52.124;5.196;2022-09-09T06:49:30;100487.00;;;26.00
20733;BMP180;10527;52.124;5.196;2022-09-09T06:51:56;100486.00;;;26.00
20733;BMP180;10527;52.124;5.196;2022-09-09T06:54:24;100487.00;;;26.10
20733;BMP180;10527;52.124;5.196;2022-09-09T06:56:51;100490.00;;;26.10
20733;BMP180;10527;52.124;5.196;2022-09-09T06:59:18;100486.00;;;26.10
20733;BMP180;10527;52.124;5.196;2022-09-09T07:01:45;100488.00;;;26.10
20733;BMP180;10527;52.124;5.196;2022-09-09T07:04:17;100490.00;;;26.10
20733;BMP180;10527;52.124;5.196;2022-09-09T07:06:45;100486.00;;;26.20
20733;BMP180;10527;52.124;5.196;2022-09-09T07:09:22;100489.00;;;26.20
20733;BMP180;10527;52.124;5.196;2022-09-09T07:11:51;100488.00;;;26.20
20733;BMP180;10527;52.124;5.196;2022-09-09T07:14:19;100481.00;;;26.30
20733;BMP180;10527;52.124;5.196;2022-09-09T07:16:46;100480.00;;;26.40
20733;BMP180;10527;52.124;5.196;2022-09-09T07:19:14;100469.00;;;26.50
20733;BMP180;10527;52.124;5.196;2022-09-09T07:21:41;100480.00;;;26.50
20733;BMP180;10527;52.124;5.196;2022-09-09T07:24:09;100486.00;;;26.60
20733;BMP180;10527;52.124;5.196;2022-09-09T07:26:38;100493.00;;;26.60
20733;BMP180;10527;52.124;5.196;2022-09-09T07:29:06;100496.00;;;26.60
20733;BMP180;10527;52.124;5.196;2022-09-09T07:31:36;100488.00;;;26.70
20733;BMP180;10527;52.124;5.196;2022-09-09T07:34:04;100493.00;;;26.70
20733;BMP180;10527;52.124;5.196;2022-09-09T07:36:48;100499.00;;;26.70
20733;BMP180;10527;52.124;5.196;2022-09-09T07:39:15;100495.00;;;26.70
20733;BMP180;10527;52.124;5.196;2022-09-09T07:41:47;100498.00;;;26.80
20733;BMP180;10527;52.124;5.196;2022-09-09T07:44:21;100505.00;;;26.80
20733;BMP180;10527;52.124;5.196;2022-09-09T07:46:49;100503.00;;;26.80
20733;BMP180;10527;52.124;5.196;2022-09-09T07:49:16;100504.00;;;26.80
20733;BMP180;10527;52.124;5.196;2022-09-09T07:52:10;100498.00;;;26.90
20733;BMP180;10527;52.124;5.196;2022-09-09T07:54:41;100501.00;;;26.90
20733;BMP180;10527;52.124;5.196;2022-09-09T07:57:08;100505.00;;;26.90
20733;BMP180;10527;52.124;5.196;2022-09-09T07:59:35;100504.00;;;26.90
20733;BMP180;10527;52.124;5.196;2022-09-09T08:02:02;100500.00;;;26.90
20733;BMP180;10527;52.124;5.196;2022-09-09T08:04:28;100500.00;;;27.00
20733;BMP180;10527;52.124;5.196;2022-09-09T08:06:58;100506.00;;;27.00
20733;BMP180;10527;52.124;5.196;2022-09-09T08:09:27;100508.00;;;27.00
20733;BMP180;10527;52.124;5.196;2022-09-09T08:11:57;100506.00;;;27.00
20733;BMP180;10527;52.124;5.196;2022-09-09T08:14:25;100498.00;;;27.00
20733;BMP180;10527;52.124;5.196;2022-09-09T08:16:52;100500.00;;;27.00
20733;BMP180;10527;52.124;5.196;2022-09-09T08:19:21;100498.00;;;27.00
20733;BMP180;10527;52.124;5.196;2022-09-09T08:21:47;100511.00;;;27.00
20733;BMP180;10527;52.124;5.196;2022-09-09T08:24:17;100510.00;;;27.10
20733;BMP180;10527;52.124;5.196;2022-09-09T08:26:48;100504.00;;;27.00
20733;BMP180;10527;52.124;5.196;2022-09-09T08:29:18;100510.00;;;27.00
20733;BMP180;10527;52.124;5.196;2022-09-09T08:31:52;100505.00;;;27.10
20733;BMP180;10527;52.124;5.196;2022-09-09T08:34:22;100511.00;;;27.10
20733;BMP180;10527;52.124;5.196;2022-09-09T08:36:50;100508.00;;;27.10
20733;BMP180;10527;52.124;5.196;2022-09-09T08:39:20;100511.00;;;27.10
20733;BMP180;10527;52.124;5.196;2022-09-09T08:48:07;100526.00;;;27.20
20733;BMP180;10527;52.124;5.196;2022-09-09T08:50:39;100524.00;;;27.20
20733;BMP180;10527;52.124;5.196;2022-09-09T08:53:29;100527.00;;;27.20
20733;BMP180;10527;52.124;5.196;2022-09-09T08:56:04;100534.00;;;27.20
20733;BMP180;10527;52.124;5.196;2022-09-09T08:58:42;100523.00;;;27.30
20733;BMP180;10527;52.124;5.196;2022-09-09T09:10:14;100530.00;;;27.20
20733;BMP180;10527;52.124;5.196;2022-09-09T09:13:03;100535.00;;;27.30
20733;BMP180;10527;52.124;5.196;2022-09-09T09:15:37;100529.00;;;27.30
20733;BMP180;10527;52.124;5.196;2022-09-09T09:18:05;100534.00;;;27.30
20733;BMP180;10527;52.124;5.196;2022-09-09T09:21:06;100535.00;;;27.30
20733;BMP180;10527;52.124;5.196;2022-09-09T09:23:46;100534.00;;;27.30
20733;BMP180;10527;52.124;5.196;2022-09-09T09:26:15;100538.00;;;27.30
20733;BMP180;10527;52.124;5.196;2022-09-09T09:28:42;100542.00;;;27.30
20733;BMP180;10527;52.124;5.196;2022-09-09T09:31:11;100534.00;;;27.30
20733;BMP180;10527;52.124;5.196;2022-09-09T09:36:14;100537.00;;;27.30
20733;BMP180;10527;52.124;5.196;2022-09-09T09:38:59;100532.00;;;27.40
20733;BMP180;10527;52.124;5.196;2022-09-09T09:41:47;100546.00;;;27.40
20733;BMP180;10527;52.124;5.196;2022-09-09T09:44:27;100549.00;;;27.40
20733;BMP180;10527;52.124;5.196;2022-09-09T09:47:20;100556.00;;;27.30
20733;BMP180;10527;52.124;5.196;2022-09-09T09:49:58;100549.00;;;27.30
20733;BMP180;10527;52.124;5.196;2022-09-09T09:52:30;100547.00;;;27.30
20733;BMP180;10527;52.124;5.196;2022-09-09T09:55:03;100547.00;;;27.30
20733;BMP180;10527;52.124;5.196;2022-09-09T09:57:34;100540.00;;;27.20
20733;BMP180;10527;52.124;5.196;2022-09-09T10:02:44;100538.00;;;27.20
20733;BMP180;10527;52.124;5.196;2022-09-09T10:05:30;100536.00;;;27.30
20733;BMP180;10527;52.124;5.196;2022-09-09T10:08:11;100539.00;;;27.30
20733;BMP180;10527;52.124;5.196;2022-09-09T10:10:56;100537.00;;;27.30
20733;BMP180;10527;52.124;5.196;2022-09-09T10:19:36;100529.00;;;27.30
20733;BMP180;10527;52.124;5.196;2022-09-09T10:22:26;100537.00;;;27.40
20733;BMP180;10527;52.124;5.196;2022-09-09T10:25:21;100543.00;;;27.40
20733;BMP180;10527;52.124;5.196;2022-09-09T10:34:19;100544.00;;;27.30
20733;BMP180;10527;52.124;5.196;2022-09-09T10:36:57;100546.00;;;27.40
20733;BMP180;10527;52.124;5.196;2022-09-09T10:39:38;100542.00;;;27.40
20733;BMP180;10527;52.124;5.196;2022-09-09T10:42:18;100527.00;;;27.40
20733;BMP180;10527;52.124;5.196;2022-09-09T10:45:02;100532.00;;;27.50
20733;BMP180;10527;52.124;5.196;2022-09-09T10:47:55;100531.00;;;27.50
20733;BMP180;10527;52.124;5.196;2022-09-09T10:56:21;100527.00;;;27.70
20733;BMP180;10527;52.124;5.196;2022-09-09T10:59:04;100522.00;;;27.70
20733;BMP180;10527;52.124;5.196;2022-09-09T11:01:41;100523.00;;;27.80
20733;BMP180;10527;52.124;5.196;2022-09-09T11:04:41;100533.00;;;27.80
20733;BMP180;10527;52.124;5.196;2022-09-09T11:07:16;100518.00;;;27.90
20733;BMP180;10527;52.124;5.196;2022-09-09T11:09:58;100528.00;;;28.00
20733;BMP180;10527;52.124;5.196;2022-09-09T11:12:30;100519.00;;;28.00
20733;BMP180;10527;52.124;5.196;2022-09-09T11:15:17;100520.00;;;28.00
20733;BMP180;10527;52.124;5.196;2022-09-09T11:17:55;100515.00;;;28.00
20733;BMP180;10527;52.124;5.196;2022-09-09T11:20:26;100523.00;;;28.10
20733;BMP180;10527;52.124;5.196;2022-09-09T11:23:20;100525.00;;;28.10
20733;BMP180;10527;52.124;5.196;2022-09-09T11:25:56;100506.00;;;28.10
20733;BMP180;10527;52.124;5.196;2022-09-09T11:40:28;100513.00;;;28.10
20733;BMP180;10527;52.124;5.196;2022-09-09T11:43:14;100507.00;;;28.20
20733;BMP180;10527;52.124;5.196;2022-09-09T11:45:43;100516.00;;;28.10
20733;BMP180;10527;52.124;5.196;2022-09-09T11:53:52;100522.00;;;28.10
20733;BMP180;10527;52.124;5.196;2022-09-09T11:56:42;100522.00;;;28.00
20733;BMP180;10527;52.124;5.196;2022-09-09T11:59:28;100514.00;;;28.00
20733;BMP180;10527;52.124;5.196;2022-09-09T12:01:58;100519.00;;;28.00
20733;BMP180;10527;52.124;5.196;2022-09-09T12:04:32;100511.00;;;28.00
20733;BMP180;10527;52.124;5.196;2022-09-09T12:10:23;100514.00;;;28.00
20733;BMP180;10527;52.124;5.196;2022-09-09T12:12:52;100515.00;;;27.90
20733;BMP180;10527;52.124;5.196;2022-09-09T12:15:28;100513.00;;;28.00
20733;BMP180;10527;52.124;5.196;2022-09-09T12:17:58;100520.00;;;27.90
20733;BMP180;10527;52.124;5.196;2022-09-09T12:29:12;100516.00;;;27.90
20733;BMP180;10527;52.124;5.196;2022-09-09T12:32:11;100512.00;;;27.90
20733;BMP180;10527;52.124;5.196;2022-09-09T12:35:02;100515.00;;;27.90
20733;BMP180;10527;52.124;5.196;2022-09-09T12:37:37;100506.00;;;28.00
20733;BMP180;10527;52.124;5.196;2022-09-09T12:40:28;100509.00;;;28.00
20733;BMP180;10527;52.124;5.196;2022-09-09T12:42:55;100508.00;;;28.10
20733;BMP180;10527;52.124;5.196;2022-09-09T12:45:26;100510.00;;;28.20
20733;BMP180;10527;52.124;5.196;2022-09-09T12:48:13;100507.00;;;28.30
20733;BMP180;10527;52.124;5.196;2022-09-09T12:50:51;100502.00;;;28.40
20733;BMP180;10527;52.124;5.196;2022-09-09T12:53:36;100505.00;;;28.50
20733;BMP180;10527;52.124;5.196;2022-09-09T12:56:17;100506.00;;;28.60
20733;BMP180;10527;52.124;5.196;2022-09-09T12:58:47;100503.00;;;28.60
20733;BMP180;10527;52.124;5.196;2022-09-09T13:01:32;100502.00;;;28.70
20733;BMP180;10527;52.124;5.196;2022-09-09T13:04:02;100507.00;;;28.70
20733;BMP180;10527;52.124;5.196;2022-09-09T13:06:31;100503.00;;;28.80
20733;BMP180;10527;52.124;5.196;2022-09-09T13:09:01;100509.00;;;28.80
20733;BMP180;10527;52.124;5.196;2022-09-09T13:11:58;100508.00;;;28.70
20733;BMP180;10527;52.124;5.196;2022-09-09T13:14:32;100511.00;;;28.70
20733;BMP180;10527;52.124;5.196;2022-09-09T13:17:05;100506.00;;;28.70
20733;BMP180;10527;52.124;5.196;2022-09-09T13:19:37;100505.00;;;28.70
20733;BMP180;10527;52.124;5.196;2022-09-09T13:22:33;100504.00;;;28.70
20733;BMP180;10527;52.124;5.196;2022-09-09T13:25:13;100500.00;;;28.70
20733;BMP180;10527;52.124;5.196;2022-09-09T13:28:02;100505.00;;;28.70
20733;BMP180;10527;52.124;5.196;2022-09-09T13:30:36;100508.00;;;28.80
20733;BMP180;10527;52.124;5.196;2022-09-09T13:33:22;100507.00;;;28.90
20733;BMP180;10527;52.124;5.196;2022-09-09T13:36:04;100507.00;;;29.00
20733;BMP180;10527;52.124;5.196;2022-09-09T13:38:58;100501.00;;;29.00
20733;BMP180;10527;52.124;5.196;2022-09-09T13:41:29;100508.00;;;29.00
20733;BMP180;10527;52.124;5.196;2022-09-09T13:43:57;100503.00;;;29.00
20733;BMP180;10527;52.124;5.196;2022-09-09T13:46:38;100496.00;;;29.10
20733;BMP180;10527;52.124;5.196;2022-09-09T13:51:44;100498.00;;;29.10
20733;BMP180;10527;52.124;5.196;2022-09-09T13:54:17;100493.00;;;29.10
20733;BMP180;10527;52.124;5.196;2022-09-09T13:56:45;100499.00;;;29.20
20733;BMP180;10527;52.124;5.196;2022-09-09T13:59:19;100509.00;;;29.20
20733;BMP180;10527;52.124;5.196;2022-09-09T14:01:47;100509.00;;;29.10
20733;BMP180;10527;52.124;5.196;2022-09-09T14:04:14;100501.00;;;29.10
20733;BMP180;10527;52.124;5.196;2022-09-09T14:06:42;100511.00;;;29.10
20733;BMP180;10527;52.124;5.196;2022-09-09T14:09:13;100502.00;;;29.10
20733;BMP180;10527;52.124;5.196;2022-09-09T14:11:43;100509.00;;;29.10
20733;BMP180;10527;52.124;5.196;2022-09-09T14:14:11;100506.00;;;29.00
20733;BMP180;10527;52.124;5.196;2022-09-09T14:16:39;100504.00;;;29.00
20733;BMP180;10527;52.124;5.196;2022-09-09T14:19:09;100503.00;;;28.90
20733;BMP180;10527;52.124;5.196;2022-09-09T14:21:36;100499.00;;;28.90
20733;BMP180;10527;52.124;5.196;2022-09-09T14:24:05;100504.00;;;28.90
20733;BMP180;10527;52.124;5.196;2022-09-09T14:26:33;100501.00;;;28.80
20733;BMP180;10527;52.124;5.196;2022-09-09T14:29:00;100509.00;;;28.70
20733;BMP180;10527;52.124;5.196;2022-09-09T14:31:28;100497.00;;;28.70
20733;BMP180;10527;52.124;5.196;2022-09-09T14:33:55;100496.00;;;28.60
20733;BMP180;10527;52.124;5.196;2022-09-09T14:36:22;100496.00;;;28.60
20733;BMP180;10527;52.124;5.196;2022-09-09T14:38:50;100490.00;;;28.70
20733;BMP180;10527;52.124;5.196;2022-09-09T14:41:19;100489.00;;;28.70
20733;BMP180;10527;52.124;5.196;2022-09-09T14:43:48;100483.00;;;28.80
20733;BMP180;10527;52.124;5.196;2022-09-09T14:46:18;100476.00;;;28.90
20733;BMP180;10527;52.124;5.196;2022-09-09T14:48:46;100497.00;;;29.10
20733;BMP180;10527;52.124;5.196;2022-09-09T14:51:22;100482.00;;;29.20
20733;BMP180;10527;52.124;5.196;2022-09-09T14:53:58;100485.00;;;29.30
20733;BMP180;10527;52.124;5.196;2022-09-09T14:56:32;100482.00;;;29.40
20733;BMP180;10527;52.124;5.196;2022-09-09T14:59:07;100489.00;;;29.40
20733;BMP180;10527;52.124;5.196;2022-09-09T15:01:34;100498.00;;;29.40
20733;BMP180;10527;52.124;5.196;2022-09-09T15:04:05;100499.00;;;29.50
20733;BMP180;10527;52.124;5.196;2022-09-09T15:06:36;100514.00;;;29.50
20733;BMP180;10527;52.124;5.196;2022-09-09T15:09:06;100510.00;;;29.40
20733;BMP180;10527;52.124;5.196;2022-09-09T15:11:37;100506.00;;;29.30
20733;BMP180;10527;52.124;5.196;2022-09-09T15:14:08;100512.00;;;29.30
20733;BMP180;10527;52.124;5.196;2022-09-09T15:16:39;100498.00;;;29.30
20733;BMP180;10527;52.124;5.196;2022-09-09T15:19:06;100518.00;;;29.30
20733;BMP180;10527;52.124;5.196;2022-09-09T15:21:38;100512.00;;;29.20
20733;BMP180;10527;52.124;5.196;2022-09-09T15:24:06;100531.00;;;29.10
20733;BMP180;10527;52.124;5.196;2022-09-09T15:26:38;100515.00;;;29.10
20733;BMP180;10527;52.124;5.196;2022-09-09T15:29:05;100531.00;;;29.00
20733;BMP180;10527;52.124;5.196;2022-09-09T15:31:41;100517.00;;;29.00
20733;BMP180;10527;52.124;5.196;2022-09-09T15:34:39;100531.00;;;29.00
20733;BMP180;10527;52.124;5.196;2022-09-09T15:37:13;100534.00;;;29.00
20733;BMP180;10527;52.124;5.196;2022-09-09T15:39:42;100528.00;;;29.00
20733;BMP180;10527;52.124;5.196;2022-09-09T15:42:09;100515.00;;;29.00
20733;BMP180;10527;52.124;5.196;2022-09-09T15:44:43;100521.00;;;29.00
20733;BMP180;10527;52.124;5.196;2022-09-09T15:47:12;100515.00;;;28.90
20733;BMP180;10527;52.124;5.196;2022-09-09T15:49:42;100519.00;;;29.00
20733;BMP180;10527;52.124;5.196;2022-09-09T15:52:10;100512.00;;;29.00
20733;BMP180;10527;52.124;5.196;2022-09-09T15:54:40;100509.00;;;29.00
20733;BMP180;10527;52.124;5.196;2022-09-09T15:57:11;100516.00;;;29.00
20733;BMP180;10527;52.124;5.196;2022-09-09T15:59:39;100519.00;;;29.00
20733;BMP180;10527;52.124;5.196;2022-09-09T16:02:15;100520.00;;;29.10
20733;BMP180;10527;52.124;5.196;2022-09-09T16:04:49;100524.00;;;29.10
20733;BMP180;10527;52.124;5.196;2022-09-09T16:07:31;100532.00;;;29.10
20733;BMP180;10527;52.124;5.196;2022-09-09T16:10:17;100526.00;;;29.10